createdAt,value
2022-12-25T00:00:53.504Z,8.70
2022-12-25T00:03:20.368Z,11.13
2022-12-25T00:05:47.149Z,15.75
2022-12-25T00:08:13.862Z,16.73
2022-12-25T00:10:45.299Z,13.05
2022-12-25T00:13:12.530Z,10.05
2022-12-25T00:15:41.189Z,5.90
2022-12-25T00:18:07.812Z,9.02
2022-12-25T00:20:34.492Z,4.85
2022-12-25T00:23:01.112Z,5.18
2022-12-25T00:25:27.749Z,8.93
2022-12-25T00:27:54.418Z,22.55
2022-12-25T00:30:21.130Z,49.35
2022-12-25T00:32:47.753Z,20.80
2022-12-25T00:35:14.347Z,105.40
2022-12-25T00:37:41.002Z,45.83
2022-12-25T00:40:08.223Z,10.70
2022-12-25T00:42:34.986Z,6.38
2022-12-25T00:45:01.669Z,8.30
2022-12-25T00:47:28.392Z,34.95
2022-12-25T00:49:55.309Z,15.85
2022-12-25T00:52:22.018Z,31.05
2022-12-25T00:54:48.728Z,18.27
2022-12-25T00:57:15.564Z,10.52
2022-12-25T00:59:42.173Z,8.23
2022-12-25T01:02:24.220Z,9.80
2022-12-25T01:04:52.145Z,8.23
2022-12-25T01:07:19.126Z,10.52
2022-12-25T01:10:04.830Z,10.07
2022-12-25T01:12:32.633Z,4.25
2022-12-25T01:14:59.349Z,3.70
2022-12-25T01:17:26.042Z,5.43
2022-12-25T01:19:52.677Z,4.75
2022-12-25T01:22:19.977Z,4.22
2022-12-25T01:24:46.788Z,4.47
2022-12-25T01:27:13.547Z,5.97
2022-12-25T01:29:40.315Z,6.85
2022-12-25T01:32:06.928Z,5.20
2022-12-25T01:34:33.617Z,3.53
2022-12-25T01:37:00.255Z,7.63
2022-12-25T01:39:26.921Z,5.60
2022-12-25T01:41:53.505Z,7.32
2022-12-25T01:44:20.099Z,7.25
2022-12-25T01:46:46.783Z,7.47
2022-12-25T01:49:20.833Z,6.88
2022-12-25T01:52:06.005Z,7.53
2022-12-25T01:54:34.993Z,6.07
2022-12-25T01:57:03.030Z,4.70
2022-12-25T01:59:29.739Z,3.85
2022-12-25T02:01:57.158Z,4.93
2022-12-25T02:04:40.662Z,2.97
2022-12-25T02:07:09.060Z,3.77
2022-12-25T02:09:35.728Z,3.08
2022-12-25T02:12:02.400Z,3.40
2022-12-25T02:14:30.889Z,4.07
2022-12-25T02:17:45.905Z,3.22
2022-12-25T02:20:43.233Z,6.00
2022-12-25T02:23:37.865Z,5.47
2022-12-25T02:28:36.942Z,4.90
2022-12-25T02:31:13.292Z,5.72
2022-12-25T02:34:05.155Z,4.30
2022-12-25T02:36:36.358Z,4.70
2022-12-25T02:39:22.918Z,4.32
2022-12-25T02:41:49.580Z,4.13
2022-12-25T02:44:36.944Z,5.30
2022-12-25T02:47:22.363Z,2.53
2022-12-25T02:50:07.937Z,4.50
2022-12-25T02:52:53.263Z,3.75
2022-12-25T02:55:40.252Z,4.05
2022-12-25T02:58:30.711Z,4.47
2022-12-25T03:01:27.835Z,3.67
2022-12-25T03:04:30.915Z,3.50
2022-12-25T03:07:14.573Z,3.53
2022-12-25T03:10:01.720Z,4.47
2022-12-25T03:13:01.834Z,4.45
2022-12-25T03:15:47.121Z,3.75
2022-12-25T03:18:15.443Z,3.70
2022-12-25T03:21:00.769Z,3.35
2022-12-25T03:23:48.583Z,4.05
2022-12-25T03:26:33.863Z,3.28
2022-12-25T03:29:00.486Z,6.70
2022-12-25T03:31:43.506Z,3.05
2022-12-25T03:34:46.904Z,4.70
2022-12-25T03:37:43.398Z,6.10
2022-12-25T03:40:31.513Z,4.78
2022-12-25T03:43:24.984Z,6.00
2022-12-25T03:46:11.483Z,4.60
2022-12-25T03:48:58.140Z,3.00
2022-12-25T03:51:47.004Z,4.72
2022-12-25T03:54:32.113Z,4.90
2022-12-25T03:57:16.913Z,4.32
2022-12-25T04:00:01.979Z,2.88
2022-12-25T04:02:47.059Z,5.05
2022-12-25T04:05:32.369Z,6.57
2022-12-25T04:08:17.416Z,5.18
2022-12-25T04:11:02.282Z,4.43
2022-12-25T04:13:47.732Z,3.67
2022-12-25T04:16:32.666Z,5.00
2022-12-25T04:19:18.058Z,4.57
2022-12-25T04:22:03.441Z,3.63
2022-12-25T04:24:48.869Z,19.42
2022-12-25T04:27:53.692Z,10.98
2022-12-25T04:33:24.043Z,15.63
2022-12-25T04:36:09.345Z,11.82
2022-12-25T04:38:36.276Z,12.43
2022-12-25T04:41:02.980Z,14.55
2022-12-25T04:43:29.766Z,7.40
2022-12-25T04:45:57.116Z,16.15
2022-12-25T04:48:24.007Z,8.70
2022-12-25T04:50:50.684Z,8.32
2022-12-25T04:53:17.426Z,15.73
2022-12-25T04:55:44.065Z,22.75
2022-12-25T04:58:10.805Z,9.68
2022-12-25T05:00:37.581Z,7.10
2022-12-25T05:03:04.436Z,10.70
2022-12-25T05:05:31.252Z,10.18
2022-12-25T05:07:58.042Z,10.25
2022-12-25T05:10:24.796Z,11.43
2022-12-25T05:12:51.441Z,10.05
2022-12-25T05:15:18.159Z,9.73
2022-12-25T05:17:44.776Z,9.90
2022-12-25T05:20:11.452Z,9.52
2022-12-25T05:22:38.008Z,7.85
2022-12-25T05:25:05.091Z,3.70
2022-12-25T05:27:31.751Z,8.27
2022-12-25T05:29:58.575Z,8.18
2022-12-25T05:32:25.209Z,15.70
2022-12-25T05:34:51.883Z,10.60
2022-12-25T05:37:18.549Z,9.52
2022-12-25T05:39:45.121Z,11.57
2022-12-25T05:42:11.840Z,20.10
2022-12-25T05:44:38.520Z,18.48
2022-12-25T05:47:05.148Z,323.38
2022-12-25T05:49:32.136Z,131.70
2022-12-25T05:51:58.820Z,34.60
2022-12-25T05:54:25.482Z,32.10
2022-12-25T05:56:52.184Z,30.23
2022-12-25T05:59:18.886Z,36.97
2022-12-25T06:01:46.611Z,42.63
2022-12-25T06:04:13.583Z,18.27
2022-12-25T06:06:40.778Z,6.65
2022-12-25T06:09:07.488Z,12.73
2022-12-25T06:11:34.220Z,9.35
2022-12-25T06:14:01.251Z,11.38
2022-12-25T06:16:30.560Z,12.15
2022-12-25T06:19:02.381Z,9.23
2022-12-25T06:21:29.063Z,19.45
2022-12-25T06:23:55.711Z,10.38
2022-12-25T06:26:22.414Z,8.30
2022-12-25T06:28:49.078Z,10.57
2022-12-25T06:31:17.653Z,10.23
2022-12-25T06:33:44.499Z,8.82
2022-12-25T06:36:18.992Z,15.23
2022-12-25T06:38:45.619Z,16.45
2022-12-25T06:41:32.430Z,5.20
2022-12-25T06:44:00.184Z,4.32
2022-12-25T06:46:28.189Z,9.73
2022-12-25T06:48:55.084Z,14.45
2022-12-25T06:51:23.434Z,13.95
2022-12-25T06:53:50.564Z,14.10
2022-12-25T06:56:19.678Z,10.48
2022-12-25T06:58:47.981Z,11.85
2022-12-25T07:01:27.392Z,11.13
2022-12-25T07:03:57.160Z,12.82
2022-12-25T07:06:23.811Z,11.55
2022-12-25T07:08:50.500Z,6.93
2022-12-25T07:11:17.253Z,13.57
2022-12-25T07:13:43.861Z,15.73
2022-12-25T07:16:10.718Z,28.65
2022-12-25T07:18:37.460Z,7.13
2022-12-25T07:21:17.360Z,6.13
2022-12-25T07:23:44.369Z,12.13
2022-12-25T07:26:11.681Z,7.82
2022-12-25T07:28:38.521Z,5.32
2022-12-25T07:31:15.453Z,13.52
2022-12-25T07:33:42.398Z,9.65
2022-12-25T07:36:12.415Z,8.02
2022-12-25T07:38:40.341Z,6.55
2022-12-25T07:41:10.922Z,5.10
2022-12-25T07:43:37.607Z,4.95
2022-12-25T07:46:05.135Z,4.35
2022-12-25T07:48:31.876Z,8.55
2022-12-25T07:51:03.406Z,44.30
2022-12-25T07:53:30.069Z,19.27
2022-12-25T07:56:04.783Z,29.92
2022-12-25T07:58:31.693Z,12.20
2022-12-25T08:01:10.002Z,11.13
2022-12-25T08:03:37.088Z,8.13
2022-12-25T08:06:08.486Z,3.67
2022-12-25T08:08:35.690Z,10.70
2022-12-25T08:11:02.384Z,24.60
2022-12-25T08:13:32.763Z,56.95
2022-12-25T08:16:04.026Z,38.25
2022-12-25T08:18:30.790Z,85.68
2022-12-25T08:20:57.623Z,40.78
2022-12-25T08:23:24.454Z,47.85
2022-12-25T08:25:51.080Z,14.77
2022-12-25T08:28:17.716Z,11.77
2022-12-25T08:30:44.489Z,12.15
2022-12-25T08:33:11.136Z,15.77
2022-12-25T08:35:37.719Z,7.68
2022-12-25T08:38:04.508Z,5.43
2022-12-25T08:40:32.450Z,9.57
2022-12-25T08:42:59.023Z,11.25
2022-12-25T08:45:28.537Z,16.75
2022-12-25T08:47:59.567Z,7.20
2022-12-25T08:50:26.206Z,17.33
2022-12-25T08:52:52.827Z,16.67
2022-12-25T08:55:19.439Z,10.93
2022-12-25T08:57:46.110Z,12.02
2022-12-25T09:00:13.345Z,4.82
2022-12-25T09:02:40.106Z,5.57
2022-12-25T09:05:07.582Z,12.75
2022-12-25T09:07:34.305Z,4.50
2022-12-25T09:10:00.928Z,8.15
2022-12-25T09:12:27.520Z,8.75
2022-12-25T09:14:54.121Z,9.18
2022-12-25T09:17:20.879Z,6.55
2022-12-25T09:19:47.618Z,5.15
2022-12-25T09:22:14.317Z,9.95
2022-12-25T09:24:40.959Z,9.20
2022-12-25T09:27:07.848Z,10.45
2022-12-25T09:29:34.498Z,9.82
2022-12-25T09:32:01.205Z,5.82
2022-12-25T09:34:28.001Z,15.23
2022-12-25T09:36:54.656Z,11.85
2022-12-25T09:39:21.228Z,6.57
2022-12-25T09:41:55.178Z,9.85
2022-12-25T09:44:27.320Z,5.45
2022-12-25T09:47:08.187Z,4.32
2022-12-25T09:50:00.860Z,7.93
2022-12-25T09:52:48.539Z,3.97
2022-12-25T09:55:19.891Z,4.88
2022-12-25T09:58:00.706Z,7.22
2022-12-25T10:00:41.028Z,3.30
2022-12-25T10:03:10.630Z,1.63
2022-12-25T10:06:02.000Z,6.13
2022-12-25T10:08:50.273Z,4.95
2022-12-25T10:11:55.987Z,3.72
2022-12-25T10:14:43.695Z,16.65
2022-12-25T10:17:25.445Z,6.97
2022-12-25T10:20:12.973Z,4.03
2022-12-25T10:22:48.691Z,3.28
2022-12-25T10:25:23.356Z,3.95
2022-12-25T10:27:57.978Z,5.72
2022-12-25T10:30:25.636Z,2.20
2022-12-25T10:32:52.219Z,4.28
2022-12-25T10:35:20.501Z,3.78
2022-12-25T10:37:52.977Z,1.60
2022-12-25T10:40:28.950Z,2.45
2022-12-25T10:43:08.150Z,3.17
2022-12-25T10:45:55.233Z,7.05
2022-12-25T10:48:25.397Z,1.92
2022-12-25T10:50:52.107Z,3.10
2022-12-25T10:53:24.046Z,4.28
2022-12-25T10:56:15.087Z,1.17
2022-12-25T10:58:41.817Z,3.25
2022-12-25T11:01:08.528Z,4.30
2022-12-25T11:03:37.666Z,3.22
2022-12-25T11:06:04.864Z,6.20
2022-12-25T11:08:32.099Z,2.45
2022-12-25T11:11:00.095Z,2.45
2022-12-25T11:13:28.168Z,4.13
2022-12-25T11:16:12.027Z,5.43
2022-12-25T11:18:45.920Z,8.68
2022-12-25T11:21:32.495Z,4.45
2022-12-25T11:23:59.949Z,4.60
2022-12-25T11:26:27.416Z,3.92
2022-12-25T11:28:54.796Z,7.43
2022-12-25T11:31:39.382Z,7.20
2022-12-25T11:34:18.582Z,3.95
2022-12-25T11:36:50.894Z,7.57
2022-12-25T11:39:31.160Z,5.30
2022-12-25T11:42:36.847Z,3.33
2022-12-25T11:45:20.175Z,4.82
2022-12-25T11:47:52.032Z,4.93
2022-12-25T11:50:40.356Z,13.10
2022-12-25T11:53:11.891Z,4.82
2022-12-25T11:55:40.478Z,9.23
2022-12-25T11:58:20.694Z,12.60
2022-12-25T12:00:47.772Z,9.25
2022-12-25T12:03:21.958Z,10.65
2022-12-25T12:05:52.612Z,4.28
2022-12-25T12:08:19.462Z,8.40
2022-12-25T12:11:16.603Z,9.82
2022-12-25T12:14:15.292Z,5.40
2022-12-25T12:16:42.425Z,3.20
2022-12-25T12:19:29.352Z,3.70
2022-12-25T12:21:57.337Z,4.30
2022-12-25T12:24:24.006Z,3.72
2022-12-25T12:27:08.752Z,5.40
2022-12-25T12:29:43.779Z,4.50
2022-12-25T12:32:26.929Z,1.92
2022-12-25T12:34:53.581Z,6.72
2022-12-25T12:37:31.686Z,11.50
2022-12-25T12:39:58.521Z,13.18
2022-12-25T12:42:48.469Z,7.90
2022-12-25T12:45:17.600Z,6.07
2022-12-25T12:47:48.712Z,8.65
2022-12-25T12:50:35.456Z,5.50
2022-12-25T12:53:33.712Z,10.75
2022-12-25T12:56:19.987Z,9.93
2022-12-25T12:58:50.984Z,11.50
2022-12-25T13:01:26.926Z,12.27
2022-12-25T13:04:06.629Z,3.83
2022-12-25T13:06:33.996Z,13.40
2022-12-25T13:09:14.384Z,11.13
2022-12-25T13:11:41.940Z,7.15
2022-12-25T13:14:22.828Z,6.93
2022-12-25T13:16:51.503Z,6.43
2022-12-25T13:19:21.826Z,9.10
2022-12-25T13:21:53.326Z,7.05
2022-12-25T13:24:27.655Z,3.45
2022-12-25T13:26:54.459Z,2.58
2022-12-25T13:29:30.233Z,3.50
2022-12-25T13:31:57.927Z,7.53
2022-12-25T13:34:38.124Z,6.40
2022-12-25T13:37:14.242Z,7.35
2022-12-25T13:39:51.571Z,5.10
2022-12-25T13:42:20.803Z,4.38
2022-12-25T13:44:57.490Z,6.63
2022-12-25T13:47:25.339Z,2.75
2022-12-25T13:49:54.141Z,4.90
2022-12-25T13:52:23.874Z,3.92
2022-12-25T13:55:04.759Z,3.70
2022-12-25T13:57:34.420Z,4.03
2022-12-25T14:00:01.403Z,3.95
2022-12-25T14:02:30.622Z,4.30
2022-12-25T14:04:57.393Z,5.95
2022-12-25T14:07:24.788Z,4.07
2022-12-25T14:09:55.021Z,6.20
2022-12-25T14:12:22.046Z,7.05
2022-12-25T14:14:48.850Z,10.02
2022-12-25T14:17:15.514Z,9.90
2022-12-25T14:19:42.231Z,8.32
2022-12-25T14:22:18.023Z,7.63
2022-12-25T14:24:44.683Z,9.15
2022-12-25T14:27:19.848Z,10.10
2022-12-25T14:29:48.521Z,13.63
2022-12-25T14:32:17.113Z,15.82
2022-12-25T14:34:46.273Z,14.65
2022-12-25T14:37:17.381Z,6.28
2022-12-25T14:39:48.045Z,17.33
2022-12-25T14:42:25.171Z,20.00
2022-12-25T14:45:02.012Z,16.50
2022-12-25T14:47:28.898Z,9.65
2022-12-25T14:49:55.683Z,15.93
2022-12-25T14:52:49.683Z,12.35
2022-12-25T14:55:19.673Z,12.40
2022-12-25T14:58:01.297Z,10.70
2022-12-25T15:00:33.033Z,6.65
2022-12-25T15:02:59.759Z,9.27
2022-12-25T15:05:29.168Z,16.13
2022-12-25T15:08:25.635Z,10.45
2022-12-25T15:11:02.558Z,11.40
2022-12-25T15:13:30.110Z,15.68
2022-12-25T15:16:07.747Z,18.50
2022-12-25T15:18:37.671Z,23.08
2022-12-25T15:21:04.419Z,23.55
2022-12-25T15:23:31.184Z,22.52
2022-12-25T15:25:57.875Z,51.28
2022-12-25T15:28:24.576Z,16.45
2022-12-25T15:30:51.384Z,34.10
2022-12-25T15:33:18.608Z,30.42
2022-12-25T15:35:45.594Z,24.80
2022-12-25T15:38:12.815Z,22.27
2022-12-25T15:40:39.647Z,22.95
2022-12-25T15:43:11.365Z,26.15
2022-12-25T15:45:49.145Z,33.17
2022-12-25T15:48:15.825Z,25.95
2022-12-25T15:50:43.643Z,40.67
2022-12-25T15:53:11.025Z,22.05
2022-12-25T15:55:37.749Z,23.48
2022-12-25T15:58:04.431Z,31.52
2022-12-25T16:00:31.135Z,26.88
2022-12-25T16:02:57.934Z,61.30
2022-12-25T16:05:24.754Z,23.30
2022-12-25T16:07:51.611Z,22.52
2022-12-25T16:10:18.914Z,39.13
2022-12-25T16:12:46.011Z,43.35
2022-12-25T16:15:13.271Z,26.05
2022-12-25T16:17:40.004Z,48.80
2022-12-25T16:20:07.295Z,34.75
2022-12-25T16:22:39.891Z,48.75
2022-12-25T16:25:14.270Z,55.47
2022-12-25T16:27:41.110Z,45.33
2022-12-25T16:30:08.400Z,32.10
2022-12-25T16:32:35.174Z,48.40
2022-12-25T16:35:01.880Z,51.15
2022-12-25T16:37:28.620Z,48.83
2022-12-25T16:39:55.278Z,25.55
2022-12-25T16:42:21.945Z,52.03
2022-12-25T16:44:48.681Z,29.67
2022-12-25T16:47:15.395Z,38.40
2022-12-25T16:49:43.205Z,45.72
2022-12-25T16:52:09.870Z,47.70
2022-12-25T16:54:36.660Z,57.00
2022-12-25T16:57:03.306Z,57.63
2022-12-25T16:59:30.393Z,54.80
2022-12-25T17:01:57.503Z,45.00
2022-12-25T17:04:25.367Z,47.78
2022-12-25T17:06:52.071Z,45.75
2022-12-25T17:09:18.672Z,44.10
2022-12-25T17:11:45.481Z,58.88
2022-12-25T17:14:12.135Z,64.80
2022-12-25T17:16:39.917Z,51.55
2022-12-25T17:19:09.714Z,55.50
2022-12-25T17:21:38.346Z,47.33
2022-12-25T17:24:06.062Z,89.70
2022-12-25T17:26:32.926Z,89.20
2022-12-25T17:28:59.565Z,84.75
2022-12-25T17:31:26.276Z,93.53
2022-12-25T17:33:53.156Z,164.70
2022-12-25T17:36:20.481Z,65.28
2022-12-25T17:38:47.704Z,48.63
2022-12-25T17:41:15.769Z,66.53
2022-12-25T17:43:44.274Z,45.40
2022-12-25T17:46:21.879Z,39.97
2022-12-25T17:48:52.007Z,54.63
2022-12-25T17:51:21.869Z,76.25
2022-12-25T17:53:50.622Z,36.15
2022-12-25T17:56:17.797Z,110.72
2022-12-25T17:58:44.522Z,45.75
2022-12-25T18:01:15.475Z,22.13
2022-12-25T18:03:43.047Z,22.45
2022-12-25T18:06:14.629Z,24.58
2022-12-25T18:08:41.844Z,41.25
2022-12-25T18:11:10.051Z,31.33
2022-12-25T18:13:37.169Z,40.30
2022-12-25T18:16:05.709Z,55.78
2022-12-25T18:18:32.624Z,49.20
2022-12-25T18:20:59.524Z,43.22
2022-12-25T18:23:26.209Z,47.88
2022-12-25T18:25:52.885Z,92.28
2022-12-25T18:28:19.620Z,115.72
2022-12-25T18:30:46.505Z,73.38
2022-12-25T18:33:13.076Z,68.28
2022-12-25T18:35:40.768Z,82.75
2022-12-25T18:38:09.316Z,84.80
2022-12-25T18:40:46.752Z,104.45
2022-12-25T18:43:13.741Z,95.50
2022-12-25T18:45:40.552Z,85.63
2022-12-25T18:48:07.368Z,95.40
2022-12-25T18:50:35.021Z,97.55
2022-12-25T18:53:03.439Z,55.72
2022-12-25T18:55:30.310Z,37.72
2022-12-25T18:57:56.997Z,54.97
2022-12-25T19:00:23.959Z,54.53
2022-12-25T19:02:50.810Z,46.78
2022-12-25T19:05:17.571Z,64.75
2022-12-25T19:07:44.310Z,63.45
2022-12-25T19:10:10.941Z,40.75
2022-12-25T19:12:37.637Z,27.70
2022-12-25T19:15:04.579Z,35.17
2022-12-25T19:17:32.106Z,25.80
2022-12-25T19:19:58.948Z,24.80
2022-12-25T19:22:25.867Z,31.63
2022-12-25T19:24:52.545Z,31.83
2022-12-25T19:27:19.146Z,29.52
2022-12-25T19:29:45.923Z,31.17
2022-12-25T19:32:12.629Z,26.35
2022-12-25T19:34:39.306Z,19.52
2022-12-25T19:37:05.978Z,20.67
2022-12-25T19:39:32.626Z,19.35
2022-12-25T19:41:59.334Z,19.45
2022-12-25T19:44:26.051Z,27.50
2022-12-25T19:46:53.518Z,34.13
2022-12-25T19:49:20.113Z,25.60
2022-12-25T19:51:47.056Z,23.58
2022-12-25T19:54:20.501Z,17.80
2022-12-25T19:56:47.967Z,17.83
2022-12-25T19:59:15.085Z,11.35
2022-12-25T20:01:42.279Z,16.65
2022-12-25T20:04:09.714Z,16.13
2022-12-25T20:06:38.359Z,16.58
2022-12-25T20:09:06.933Z,28.05
2022-12-25T20:11:34.073Z,19.52
2022-12-25T20:14:00.801Z,42.47
2022-12-25T20:16:27.518Z,20.95
2022-12-25T20:18:54.359Z,80.93
2022-12-25T20:21:21.887Z,64.45
2022-12-25T20:23:49.644Z,56.75
2022-12-25T20:26:17.590Z,65.88
2022-12-25T20:28:44.543Z,51.08
2022-12-25T20:31:16.612Z,34.33
2022-12-25T20:33:43.384Z,38.30
2022-12-25T20:36:10.149Z,13.73
2022-12-25T20:38:40.088Z,11.98
2022-12-25T20:41:28.715Z,12.93
2022-12-25T20:43:56.244Z,14.68
2022-12-25T20:46:23.549Z,14.50
2022-12-25T20:48:50.421Z,21.80
2022-12-25T20:51:18.622Z,49.42
2022-12-25T20:53:45.658Z,14.02
2022-12-25T20:56:13.088Z,40.90
2022-12-25T20:58:39.893Z,16.30
2022-12-25T21:01:08.061Z,14.45
2022-12-25T21:03:35.194Z,11.38
2022-12-25T21:06:02.082Z,14.43
2022-12-25T21:08:29.816Z,11.57
2022-12-25T21:11:00.677Z,7.78
2022-12-25T21:13:32.829Z,14.40
2022-12-25T21:15:59.711Z,11.55
2022-12-25T21:18:27.253Z,12.45
2022-12-25T21:20:56.145Z,10.15
2022-12-25T21:23:22.945Z,12.95
2022-12-25T21:25:49.812Z,12.60
2022-12-25T21:28:16.902Z,11.32
2022-12-25T21:30:43.620Z,12.50
2022-12-25T21:33:31.044Z,13.73
2022-12-25T21:36:07.945Z,18.80
2022-12-25T21:38:34.672Z,22.73
2022-12-25T21:41:09.687Z,32.80
2022-12-25T21:43:36.822Z,26.35
2022-12-25T21:46:05.442Z,34.83
2022-12-25T21:48:32.237Z,30.88
2022-12-25T21:51:48.243Z,23.63
2022-12-25T21:54:15.181Z,21.65
2022-12-25T21:56:45.001Z,12.32
2022-12-25T21:59:19.618Z,10.80
2022-12-25T22:01:46.718Z,12.90
2022-12-25T22:04:14.207Z,13.10
2022-12-25T22:06:59.658Z,15.93
2022-12-25T22:09:26.334Z,14.25
2022-12-25T22:12:11.531Z,14.02
2022-12-25T22:14:54.284Z,15.68
2022-12-25T22:17:44.383Z,21.05
2022-12-25T22:20:17.429Z,14.25
2022-12-25T22:22:44.362Z,13.57
2022-12-25T22:25:11.205Z,15.77
2022-12-25T22:27:38.272Z,14.30
2022-12-25T22:30:06.737Z,23.85
2022-12-25T22:32:33.635Z,16.02
2022-12-25T22:35:00.648Z,59.00
2022-12-25T22:37:27.280Z,27.38
2022-12-25T22:39:53.953Z,25.15
2022-12-25T22:42:20.986Z,17.92
2022-12-25T22:44:47.630Z,12.15
2022-12-25T22:47:14.259Z,19.58
2022-12-25T22:49:40.932Z,21.05
2022-12-25T22:52:10.391Z,27.83
2022-12-25T22:54:37.098Z,17.67
2022-12-25T22:57:03.806Z,15.43
2022-12-25T22:59:30.629Z,14.45
2022-12-25T23:01:57.465Z,20.60
2022-12-25T23:04:24.181Z,17.92
2022-12-25T23:06:50.948Z,11.32
2022-12-25T23:09:24.214Z,23.42
2022-12-25T23:14:36.536Z,13.65
2022-12-25T23:17:03.170Z,18.92
2022-12-25T23:19:48.299Z,11.63
2022-12-25T23:22:33.977Z,15.23
2022-12-25T23:25:19.048Z,20.42
2022-12-25T23:27:45.807Z,18.90
2022-12-25T23:30:15.378Z,13.45
2022-12-25T23:32:44.047Z,10.82
2022-12-25T23:35:11.304Z,19.20
2022-12-25T23:37:38.041Z,15.10
2022-12-25T23:40:05.389Z,15.57
2022-12-25T23:42:32.148Z,11.50
2022-12-25T23:44:58.774Z,15.95
2022-12-25T23:47:25.549Z,12.45
2022-12-25T23:49:52.156Z,20.98
2022-12-25T23:52:19.006Z,16.20
2022-12-25T23:54:45.675Z,21.77
2022-12-25T23:57:12.400Z,13.95
2022-12-25T23:59:39.091Z,11.82
